sensor_id;sensor_type;location;lat;lon;timestamp;P1;durP1;ratioP1;P2;durP2;ratioP2
9698;SDS011;10089;47.876;8.346;2023-12-20T00:01:47;0.50;;;0.50;;
9698;SDS011;10089;47.876;8.346;2023-12-20T00:04:12;0.40;;;0.40;;
9698;SDS011;10089;47.876;8.346;2023-12-20T00:06:38;0.47;;;0.47;;
9698;SDS011;10089;47.876;8.346;2023-12-20T00:09:03;0.40;;;0.40;;
9698;SDS011;10089;47.876;8.346;2023-12-20T00:11:29;1.02;;;0.43;;
9698;SDS011;10089;47.876;8.346;2023-12-20T00:13:55;0.60;;;0.60;;
9698;SDS011;10089;47.876;8.346;2023-12-20T00:16:20;0.50;;;0.50;;
9698;SDS011;10089;47.876;8.346;2023-12-20T00:18:46;0.40;;;0.40;;
9698;SDS011;10089;47.876;8.346;2023-12-20T00:21:11;0.40;;;0.40;;
9698;SDS011;10089;47.876;8.346;2023-12-20T00:23:37;0.40;;;0.40;;
9698;SDS011;10089;47.876;8.346;2023-12-20T00:26:02;0.40;;;0.40;;
9698;SDS011;10089;47.876;8.346;2023-12-20T00:28:28;0.70;;;0.70;;
9698;SDS011;10089;47.876;8.346;2023-12-20T00:30:54;0.40;;;0.40;;
9698;SDS011;10089;47.876;8.346;2023-12-20T00:33:19;0.40;;;0.40;;
9698;SDS011;10089;47.876;8.346;2023-12-20T00:35:45;0.68;;;0.50;;
9698;SDS011;10089;47.876;8.346;2023-12-20T00:38:10;0.47;;;0.47;;
9698;SDS011;10089;47.876;8.346;2023-12-20T00:40:36;0.40;;;0.40;;
9698;SDS011;10089;47.876;8.346;2023-12-20T00:43:11;0.40;;;0.40;;
9698;SDS011;10089;47.876;8.346;2023-12-20T00:45:37;0.40;;;0.40;;
9698;SDS011;10089;47.876;8.346;2023-12-20T00:48:02;0.75;;;0.60;;
9698;SDS011;10089;47.876;8.346;2023-12-20T00:50:28;0.40;;;0.40;;
9698;SDS011;10089;47.876;8.346;2023-12-20T00:52:54;0.43;;;0.43;;
9698;SDS011;10089;47.876;8.346;2023-12-20T00:55:19;0.30;;;0.30;;
9698;SDS011;10089;47.876;8.346;2023-12-20T00:57:45;0.40;;;0.40;;
9698;SDS011;10089;47.876;8.346;2023-12-20T01:00:11;0.60;;;0.60;;
9698;SDS011;10089;47.876;8.346;2023-12-20T01:02:38;0.50;;;0.50;;
9698;SDS011;10089;47.876;8.346;2023-12-20T01:05:04;0.50;;;0.50;;
9698;SDS011;10089;47.876;8.346;2023-12-20T01:07:30;0.40;;;0.40;;
9698;SDS011;10089;47.876;8.346;2023-12-20T01:09:55;0.40;;;0.40;;
9698;SDS011;10089;47.876;8.346;2023-12-20T01:12:21;0.60;;;0.60;;
9698;SDS011;10089;47.876;8.346;2023-12-20T01:14:46;0.60;;;0.60;;
9698;SDS011;10089;47.876;8.346;2023-12-20T01:17:12;0.50;;;0.50;;
9698;SDS011;10089;47.876;8.346;2023-12-20T01:19:38;1.92;;;0.47;;
9698;SDS011;10089;47.876;8.346;2023-12-20T01:22:03;0.45;;;0.45;;
9698;SDS011;10089;47.876;8.346;2023-12-20T01:24:29;0.57;;;0.57;;
9698;SDS011;10089;47.876;8.346;2023-12-20T01:26:55;0.57;;;0.40;;
9698;SDS011;10089;47.876;8.346;2023-12-20T01:29:20;0.40;;;0.40;;
9698;SDS011;10089;47.876;8.346;2023-12-20T01:31:46;0.30;;;0.30;;
9698;SDS011;10089;47.876;8.346;2023-12-20T01:34:12;0.30;;;0.30;;
9698;SDS011;10089;47.876;8.346;2023-12-20T01:36:37;0.40;;;0.40;;
9698;SDS011;10089;47.876;8.346;2023-12-20T01:39:03;0.47;;;0.47;;
9698;SDS011;10089;47.876;8.346;2023-12-20T01:41:29;0.50;;;0.50;;
9698;SDS011;10089;47.876;8.346;2023-12-20T01:43:54;0.50;;;0.50;;
9698;SDS011;10089;47.876;8.346;2023-12-20T01:46:20;0.47;;;0.47;;
9698;SDS011;10089;47.876;8.346;2023-12-20T01:48:47;0.40;;;0.40;;
9698;SDS011;10089;47.876;8.346;2023-12-20T01:51:13;0.45;;;0.40;;
9698;SDS011;10089;47.876;8.346;2023-12-20T01:53:39;0.50;;;0.50;;
9698;SDS011;10089;47.876;8.346;2023-12-20T01:56:05;0.45;;;0.45;;
9698;SDS011;10089;47.876;8.346;2023-12-20T01:58:32;0.47;;;0.47;;
9698;SDS011;10089;47.876;8.346;2023-12-20T02:00:58;0.50;;;0.50;;
9698;SDS011;10089;47.876;8.346;2023-12-20T02:03:23;0.77;;;0.77;;
9698;SDS011;10089;47.876;8.346;2023-12-20T02:05:49;0.65;;;0.55;;
9698;SDS011;10089;47.876;8.346;2023-12-20T02:08:15;0.90;;;0.75;;
9698;SDS011;10089;47.876;8.346;2023-12-20T02:10:41;1.98;;;0.50;;
9698;SDS011;10089;47.876;8.346;2023-12-20T02:13:07;0.40;;;0.40;;
9698;SDS011;10089;47.876;8.346;2023-12-20T02:15:32;0.40;;;0.40;;
9698;SDS011;10089;47.876;8.346;2023-12-20T02:17:58;0.50;;;0.50;;
9698;SDS011;10089;47.876;8.346;2023-12-20T02:20:24;0.65;;;0.45;;
9698;SDS011;10089;47.876;8.346;2023-12-20T02:22:50;0.43;;;0.43;;
9698;SDS011;10089;47.876;8.346;2023-12-20T02:25:15;0.50;;;0.50;;
9698;SDS011;10089;47.876;8.346;2023-12-20T02:27:41;0.30;;;0.30;;
9698;SDS011;10089;47.876;8.346;2023-12-20T02:30:06;0.32;;;0.32;;
9698;SDS011;10089;47.876;8.346;2023-12-20T02:32:33;0.40;;;0.40;;
9698;SDS011;10089;47.876;8.346;2023-12-20T02:34:58;0.40;;;0.40;;
9698;SDS011;10089;47.876;8.346;2023-12-20T02:37:24;0.40;;;0.40;;
9698;SDS011;10089;47.876;8.346;2023-12-20T02:39:50;0.30;;;0.30;;
9698;SDS011;10089;47.876;8.346;2023-12-20T02:42:15;0.30;;;0.30;;
9698;SDS011;10089;47.876;8.346;2023-12-20T02:44:41;1.13;;;0.50;;
9698;SDS011;10089;47.876;8.346;2023-12-20T02:47:06;0.30;;;0.30;;
9698;SDS011;10089;47.876;8.346;2023-12-20T02:49:32;0.40;;;0.40;;
9698;SDS011;10089;47.876;8.346;2023-12-20T02:51:57;0.40;;;0.40;;
9698;SDS011;10089;47.876;8.346;2023-12-20T02:54:23;0.20;;;0.20;;
9698;SDS011;10089;47.876;8.346;2023-12-20T02:56:48;0.32;;;0.32;;
9698;SDS011;10089;47.876;8.346;2023-12-20T02:59:14;0.40;;;0.40;;
9698;SDS011;10089;47.876;8.346;2023-12-20T03:01:46;0.20;;;0.20;;
9698;SDS011;10089;47.876;8.346;2023-12-20T03:04:12;0.30;;;0.30;;
9698;SDS011;10089;47.876;8.346;2023-12-20T03:06:38;0.30;;;0.30;;
9698;SDS011;10089;47.876;8.346;2023-12-20T03:09:03;0.30;;;0.30;;
9698;SDS011;10089;47.876;8.346;2023-12-20T03:11:29;0.30;;;0.30;;
9698;SDS011;10089;47.876;8.346;2023-12-20T03:13:55;0.45;;;0.45;;
9698;SDS011;10089;47.876;8.346;2023-12-20T03:16:21;0.50;;;0.50;;
9698;SDS011;10089;47.876;8.346;2023-12-20T03:18:47;0.22;;;0.22;;
9698;SDS011;10089;47.876;8.346;2023-12-20T03:21:13;0.25;;;0.25;;
9698;SDS011;10089;47.876;8.346;2023-12-20T03:23:39;0.40;;;0.40;;
9698;SDS011;10089;47.876;8.346;2023-12-20T03:26:08;0.40;;;0.40;;
9698;SDS011;10089;47.876;8.346;2023-12-20T03:28:34;0.30;;;0.30;;
9698;SDS011;10089;47.876;8.346;2023-12-20T03:31:01;0.30;;;0.30;;
9698;SDS011;10089;47.876;8.346;2023-12-20T03:33:29;0.30;;;0.30;;
9698;SDS011;10089;47.876;8.346;2023-12-20T03:35:54;0.40;;;0.40;;
9698;SDS011;10089;47.876;8.346;2023-12-20T03:38:20;0.93;;;0.43;;
9698;SDS011;10089;47.876;8.346;2023-12-20T03:40:46;0.40;;;0.40;;
9698;SDS011;10089;47.876;8.346;2023-12-20T03:43:12;0.40;;;0.30;;
9698;SDS011;10089;47.876;8.346;2023-12-20T03:45:37;0.63;;;0.40;;
9698;SDS011;10089;47.876;8.346;2023-12-20T03:48:03;0.35;;;0.35;;
9698;SDS011;10089;47.876;8.346;2023-12-20T03:50:29;0.30;;;0.30;;
9698;SDS011;10089;47.876;8.346;2023-12-20T03:52:55;0.82;;;0.60;;
9698;SDS011;10089;47.876;8.346;2023-12-20T03:55:21;0.40;;;0.40;;
9698;SDS011;10089;47.876;8.346;2023-12-20T03:57:46;0.30;;;0.30;;
9698;SDS011;10089;47.876;8.346;2023-12-20T04:00:12;0.50;;;0.50;;
9698;SDS011;10089;47.876;8.346;2023-12-20T04:02:38;0.47;;;0.47;;
9698;SDS011;10089;47.876;8.346;2023-12-20T04:05:05;0.22;;;0.22;;
9698;SDS011;10089;47.876;8.346;2023-12-20T04:07:31;0.30;;;0.30;;
9698;SDS011;10089;47.876;8.346;2023-12-20T04:09:57;0.43;;;0.43;;
9698;SDS011;10089;47.876;8.346;2023-12-20T04:12:22;0.40;;;0.40;;
9698;SDS011;10089;47.876;8.346;2023-12-20T04:14:48;0.40;;;0.40;;
9698;SDS011;10089;47.876;8.346;2023-12-20T04:17:15;0.30;;;0.30;;
9698;SDS011;10089;47.876;8.346;2023-12-20T04:19:41;0.40;;;0.40;;
9698;SDS011;10089;47.876;8.346;2023-12-20T04:22:07;0.30;;;0.30;;
9698;SDS011;10089;47.876;8.346;2023-12-20T04:24:33;0.40;;;0.40;;
9698;SDS011;10089;47.876;8.346;2023-12-20T04:26:58;0.22;;;0.22;;
9698;SDS011;10089;47.876;8.346;2023-12-20T04:29:24;0.40;;;0.40;;
9698;SDS011;10089;47.876;8.346;2023-12-20T04:31:50;0.40;;;0.40;;
9698;SDS011;10089;47.876;8.346;2023-12-20T04:34:16;0.30;;;0.30;;
9698;SDS011;10089;47.876;8.346;2023-12-20T04:36:42;0.40;;;0.40;;
9698;SDS011;10089;47.876;8.346;2023-12-20T04:39:08;0.33;;;0.33;;
9698;SDS011;10089;47.876;8.346;2023-12-20T04:41:34;0.40;;;0.40;;
9698;SDS011;10089;47.876;8.346;2023-12-20T04:44:00;0.30;;;0.30;;
9698;SDS011;10089;47.876;8.346;2023-12-20T04:46:26;0.40;;;0.40;;
9698;SDS011;10089;47.876;8.346;2023-12-20T04:48:51;0.30;;;0.30;;
9698;SDS011;10089;47.876;8.346;2023-12-20T04:51:17;0.43;;;0.43;;
9698;SDS011;10089;47.876;8.346;2023-12-20T04:53:43;0.33;;;0.33;;
9698;SDS011;10089;47.876;8.346;2023-12-20T04:56:08;0.40;;;0.40;;
9698;SDS011;10089;47.876;8.346;2023-12-20T04:58:34;0.40;;;0.40;;
9698;SDS011;10089;47.876;8.346;2023-12-20T05:00:59;0.30;;;0.30;;
9698;SDS011;10089;47.876;8.346;2023-12-20T05:03:25;0.20;;;0.20;;
9698;SDS011;10089;47.876;8.346;2023-12-20T05:05:51;0.20;;;0.20;;
9698;SDS011;10089;47.876;8.346;2023-12-20T05:08:17;0.40;;;0.40;;
9698;SDS011;10089;47.876;8.346;2023-12-20T05:10:42;0.40;;;0.40;;
9698;SDS011;10089;47.876;8.346;2023-12-20T05:13:08;0.40;;;0.40;;
9698;SDS011;10089;47.876;8.346;2023-12-20T05:15:33;0.63;;;0.50;;
9698;SDS011;10089;47.876;8.346;2023-12-20T05:17:59;0.40;;;0.40;;
9698;SDS011;10089;47.876;8.346;2023-12-20T05:20:25;0.30;;;0.30;;
9698;SDS011;10089;47.876;8.346;2023-12-20T05:22:50;0.37;;;0.37;;
9698;SDS011;10089;47.876;8.346;2023-12-20T05:25:16;0.40;;;0.40;;
9698;SDS011;10089;47.876;8.346;2023-12-20T05:27:41;0.50;;;0.50;;
9698;SDS011;10089;47.876;8.346;2023-12-20T05:30:07;0.40;;;0.40;;
9698;SDS011;10089;47.876;8.346;2023-12-20T05:32:33;0.60;;;0.60;;
9698;SDS011;10089;47.876;8.346;2023-12-20T05:34:59;0.70;;;0.70;;
9698;SDS011;10089;47.876;8.346;2023-12-20T05:37:24;2.40;;;1.60;;
9698;SDS011;10089;47.876;8.346;2023-12-20T05:39:50;2.20;;;1.20;;
9698;SDS011;10089;47.876;8.346;2023-12-20T05:42:16;1.00;;;0.90;;
9698;SDS011;10089;47.876;8.346;2023-12-20T05:44:41;0.60;;;0.60;;
9698;SDS011;10089;47.876;8.346;2023-12-20T05:47:07;0.60;;;0.60;;
9698;SDS011;10089;47.876;8.346;2023-12-20T05:49:33;0.70;;;0.70;;
9698;SDS011;10089;47.876;8.346;2023-12-20T05:51:58;0.50;;;0.50;;
9698;SDS011;10089;47.876;8.346;2023-12-20T05:54:24;0.60;;;0.60;;
9698;SDS011;10089;47.876;8.346;2023-12-20T05:56:49;0.40;;;0.40;;
9698;SDS011;10089;47.876;8.346;2023-12-20T05:59:15;0.40;;;0.38;;
9698;SDS011;10089;47.876;8.346;2023-12-20T06:01:41;0.40;;;0.40;;
9698;SDS011;10089;47.876;8.346;2023-12-20T06:04:06;0.33;;;0.33;;
9698;SDS011;10089;47.876;8.346;2023-12-20T06:06:32;0.40;;;0.40;;
9698;SDS011;10089;47.876;8.346;2023-12-20T06:08:58;1.10;;;0.70;;
9698;SDS011;10089;47.876;8.346;2023-12-20T06:11:23;0.60;;;0.60;;
9698;SDS011;10089;47.876;8.346;2023-12-20T06:13:49;0.50;;;0.50;;
9698;SDS011;10089;47.876;8.346;2023-12-20T06:16:17;0.67;;;0.67;;
9698;SDS011;10089;47.876;8.346;2023-12-20T06:18:43;0.57;;;0.50;;
9698;SDS011;10089;47.876;8.346;2023-12-20T06:21:08;5.57;;;2.90;;
9698;SDS011;10089;47.876;8.346;2023-12-20T06:23:37;19.57;;;7.73;;
9698;SDS011;10089;47.876;8.346;2023-12-20T06:26:03;18.20;;;6.70;;
9698;SDS011;10089;47.876;8.346;2023-12-20T06:28:29;3.50;;;1.40;;
9698;SDS011;10089;47.876;8.346;2023-12-20T06:30:54;1.30;;;1.13;;
9698;SDS011;10089;47.876;8.346;2023-12-20T06:33:21;1.00;;;0.90;;
9698;SDS011;10089;47.876;8.346;2023-12-20T06:35:48;0.60;;;0.60;;
9698;SDS011;10089;47.876;8.346;2023-12-20T06:38:14;1.60;;;0.80;;
9698;SDS011;10089;47.876;8.346;2023-12-20T06:40:39;0.70;;;0.70;;
9698;SDS011;10089;47.876;8.346;2023-12-20T06:43:05;1.13;;;1.02;;
9698;SDS011;10089;47.876;8.346;2023-12-20T06:45:31;1.93;;;1.63;;
9698;SDS011;10089;47.876;8.346;2023-12-20T06:47:57;1.57;;;1.00;;
9698;SDS011;10089;47.876;8.346;2023-12-20T06:50:23;0.80;;;0.80;;
9698;SDS011;10089;47.876;8.346;2023-12-20T06:52:49;1.13;;;0.90;;
9698;SDS011;10089;47.876;8.346;2023-12-20T06:55:15;1.05;;;0.98;;
9698;SDS011;10089;47.876;8.346;2023-12-20T06:57:42;1.00;;;0.93;;
9698;SDS011;10089;47.876;8.346;2023-12-20T07:00:08;2.97;;;1.55;;
9698;SDS011;10089;47.876;8.346;2023-12-20T07:02:35;2.97;;;1.93;;
9698;SDS011;10089;47.876;8.346;2023-12-20T07:05:01;2.17;;;1.80;;
9698;SDS011;10089;47.876;8.346;2023-12-20T07:07:27;1.10;;;0.70;;
9698;SDS011;10089;47.876;8.346;2023-12-20T07:09:52;0.55;;;0.52;;
9698;SDS011;10089;47.876;8.346;2023-12-20T07:12:18;0.60;;;0.60;;
9698;SDS011;10089;47.876;8.346;2023-12-20T07:14:44;0.77;;;0.77;;
9698;SDS011;10089;47.876;8.346;2023-12-20T07:17:10;1.38;;;0.93;;
9698;SDS011;10089;47.876;8.346;2023-12-20T07:19:38;0.77;;;0.77;;
9698;SDS011;10089;47.876;8.346;2023-12-20T07:22:05;0.85;;;0.60;;
9698;SDS011;10089;47.876;8.346;2023-12-20T07:24:31;0.50;;;0.50;;
9698;SDS011;10089;47.876;8.346;2023-12-20T07:26:57;0.63;;;0.63;;
9698;SDS011;10089;47.876;8.346;2023-12-20T07:29:24;0.60;;;0.60;;
9698;SDS011;10089;47.876;8.346;2023-12-20T07:31:50;0.40;;;0.40;;
9698;SDS011;10089;47.876;8.346;2023-12-20T07:34:17;1.25;;;1.13;;
9698;SDS011;10089;47.876;8.346;2023-12-20T07:36:43;1.17;;;1.08;;
9698;SDS011;10089;47.876;8.346;2023-12-20T07:39:08;0.90;;;0.90;;
9698;SDS011;10089;47.876;8.346;2023-12-20T07:41:34;0.57;;;0.57;;
9698;SDS011;10089;47.876;8.346;2023-12-20T07:43:59;0.80;;;0.80;;
9698;SDS011;10089;47.876;8.346;2023-12-20T07:46:25;0.60;;;0.60;;
9698;SDS011;10089;47.876;8.346;2023-12-20T07:48:54;1.63;;;0.80;;
9698;SDS011;10089;47.876;8.346;2023-12-20T07:51:22;0.73;;;0.73;;
9698;SDS011;10089;47.876;8.346;2023-12-20T07:53:48;0.80;;;0.80;;
9698;SDS011;10089;47.876;8.346;2023-12-20T07:56:17;0.60;;;0.60;;
9698;SDS011;10089;47.876;8.346;2023-12-20T07:58:43;0.95;;;0.85;;
9698;SDS011;10089;47.876;8.346;2023-12-20T08:01:10;3.72;;;1.90;;
9698;SDS011;10089;47.876;8.346;2023-12-20T08:03:36;4.97;;;3.05;;
9698;SDS011;10089;47.876;8.346;2023-12-20T08:06:02;5.97;;;3.90;;
9698;SDS011;10089;47.876;8.346;2023-12-20T08:08:28;0.88;;;0.88;;
9698;SDS011;10089;47.876;8.346;2023-12-20T08:10:54;9.80;;;0.98;;
9698;SDS011;10089;47.876;8.346;2023-12-20T08:13:20;0.98;;;0.93;;
9698;SDS011;10089;47.876;8.346;2023-12-20T08:15:50;0.77;;;0.77;;
9698;SDS011;10089;47.876;8.346;2023-12-20T08:18:15;1.00;;;0.70;;
9698;SDS011;10089;47.876;8.346;2023-12-20T08:20:41;1.15;;;0.80;;
9698;SDS011;10089;47.876;8.346;2023-12-20T08:23:06;5.10;;;2.20;;
9698;SDS011;10089;47.876;8.346;2023-12-20T08:25:32;6.32;;;2.85;;
9698;SDS011;10089;47.876;8.346;2023-12-20T08:27:58;2.60;;;1.90;;
9698;SDS011;10089;47.876;8.346;2023-12-20T08:30:23;0.93;;;0.80;;
9698;SDS011;10089;47.876;8.346;2023-12-20T08:32:50;1.48;;;1.02;;
9698;SDS011;10089;47.876;8.346;2023-12-20T08:35:15;1.27;;;1.17;;
9698;SDS011;10089;47.876;8.346;2023-12-20T08:37:42;0.80;;;0.80;;
9698;SDS011;10089;47.876;8.346;2023-12-20T08:40:08;1.40;;;0.93;;
9698;SDS011;10089;47.876;8.346;2023-12-20T08:42:34;1.10;;;1.00;;
9698;SDS011;10089;47.876;8.346;2023-12-20T08:44:59;3.15;;;1.70;;
9698;SDS011;10089;47.876;8.346;2023-12-20T08:47:25;1.63;;;1.30;;
9698;SDS011;10089;47.876;8.346;2023-12-20T08:49:51;1.15;;;0.95;;
9698;SDS011;10089;47.876;8.346;2023-12-20T08:52:21;0.90;;;0.90;;
9698;SDS011;10089;47.876;8.346;2023-12-20T08:54:50;1.90;;;1.20;;
9698;SDS011;10089;47.876;8.346;2023-12-20T08:57:20;2.20;;;1.40;;
9698;SDS011;10089;47.876;8.346;2023-12-20T08:59:49;1.13;;;1.02;;
9698;SDS011;10089;47.876;8.346;2023-12-20T09:02:15;1.13;;;1.02;;
9698;SDS011;10089;47.876;8.346;2023-12-20T09:04:41;2.00;;;1.08;;
9698;SDS011;10089;47.876;8.346;2023-12-20T09:07:20;1.15;;;1.05;;
9698;SDS011;10089;47.876;8.346;2023-12-20T09:09:53;1.35;;;1.10;;
9698;SDS011;10089;47.876;8.346;2023-12-20T09:12:19;2.08;;;0.90;;
9698;SDS011;10089;47.876;8.346;2023-12-20T09:14:45;1.00;;;0.90;;
9698;SDS011;10089;47.876;8.346;2023-12-20T09:17:11;0.90;;;0.85;;
9698;SDS011;10089;47.876;8.346;2023-12-20T09:19:37;1.20;;;1.10;;
9698;SDS011;10089;47.876;8.346;2023-12-20T09:22:04;3.70;;;3.07;;
9698;SDS011;10089;47.876;8.346;2023-12-20T09:24:37;12.10;;;6.77;;
9698;SDS011;10089;47.876;8.346;2023-12-20T09:27:47;1.70;;;1.55;;
9698;SDS011;10089;47.876;8.346;2023-12-20T09:30:25;1.93;;;1.40;;
9698;SDS011;10089;47.876;8.346;2023-12-20T09:33:04;1.45;;;1.33;;
9698;SDS011;10089;47.876;8.346;2023-12-20T09:35:36;1.23;;;1.10;;
9698;SDS011;10089;47.876;8.346;2023-12-20T09:38:01;1.40;;;1.30;;
9698;SDS011;10089;47.876;8.346;2023-12-20T09:40:27;0.80;;;0.80;;
9698;SDS011;10089;47.876;8.346;2023-12-20T09:42:57;1.42;;;1.17;;
9698;SDS011;10089;47.876;8.346;2023-12-20T09:45:28;1.40;;;1.30;;
9698;SDS011;10089;47.876;8.346;2023-12-20T09:47:55;1.23;;;1.08;;
9698;SDS011;10089;47.876;8.346;2023-12-20T09:50:22;2.22;;;1.80;;
9698;SDS011;10089;47.876;8.346;2023-12-20T09:52:49;3.10;;;1.88;;
9698;SDS011;10089;47.876;8.346;2023-12-20T09:55:17;2.30;;;1.83;;
9698;SDS011;10089;47.876;8.346;2023-12-20T09:57:44;1.60;;;1.50;;
9698;SDS011;10089;47.876;8.346;2023-12-20T10:00:10;1.63;;;1.30;;
9698;SDS011;10089;47.876;8.346;2023-12-20T10:02:38;1.40;;;1.30;;
9698;SDS011;10089;47.876;8.346;2023-12-20T10:05:35;1.25;;;1.15;;
9698;SDS011;10089;47.876;8.346;2023-12-20T10:08:01;1.38;;;1.27;;
9698;SDS011;10089;47.876;8.346;2023-12-20T10:10:28;1.52;;;1.20;;
9698;SDS011;10089;47.876;8.346;2023-12-20T10:13:04;0.90;;;0.90;;
9698;SDS011;10089;47.876;8.346;2023-12-20T10:15:34;2.25;;;1.80;;
9698;SDS011;10089;47.876;8.346;2023-12-20T10:18:01;1.30;;;1.10;;
9698;SDS011;10089;47.876;8.346;2023-12-20T10:20:28;2.08;;;1.80;;
9698;SDS011;10089;47.876;8.346;2023-12-20T10:22:55;0.80;;;0.80;;
9698;SDS011;10089;47.876;8.346;2023-12-20T10:25:21;1.10;;;1.00;;
9698;SDS011;10089;47.876;8.346;2023-12-20T10:27:47;1.23;;;1.13;;
9698;SDS011;10089;47.876;8.346;2023-12-20T10:30:14;1.38;;;1.27;;
9698;SDS011;10089;47.876;8.346;2023-12-20T10:32:40;1.52;;;1.30;;
9698;SDS011;10089;47.876;8.346;2023-12-20T10:35:06;1.00;;;1.00;;
9698;SDS011;10089;47.876;8.346;2023-12-20T10:37:35;1.45;;;1.30;;
9698;SDS011;10089;47.876;8.346;2023-12-20T10:40:02;1.52;;;1.38;;
9698;SDS011;10089;47.876;8.346;2023-12-20T10:42:30;1.88;;;1.60;;
9698;SDS011;10089;47.876;8.346;2023-12-20T10:44:58;1.77;;;1.38;;
9698;SDS011;10089;47.876;8.346;2023-12-20T10:47:25;0.80;;;0.80;;
9698;SDS011;10089;47.876;8.346;2023-12-20T10:49:54;1.10;;;0.98;;
9698;SDS011;10089;47.876;8.346;2023-12-20T10:52:21;1.10;;;1.00;;
9698;SDS011;10089;47.876;8.346;2023-12-20T10:54:48;1.10;;;1.00;;
9698;SDS011;10089;47.876;8.346;2023-12-20T10:57:14;1.10;;;1.00;;
9698;SDS011;10089;47.876;8.346;2023-12-20T10:59:43;1.35;;;1.25;;
9698;SDS011;10089;47.876;8.346;2023-12-20T11:02:19;1.58;;;0.93;;
9698;SDS011;10089;47.876;8.346;2023-12-20T11:07:37;0.88;;;0.80;;
9698;SDS011;10089;47.876;8.346;2023-12-20T11:10:19;0.98;;;0.93;;
9698;SDS011;10089;47.876;8.346;2023-12-20T11:15:56;3.35;;;1.70;;
9698;SDS011;10089;47.876;8.346;2023-12-20T11:18:28;3.88;;;2.05;;
9698;SDS011;10089;47.876;8.346;2023-12-20T11:21:00;1.80;;;1.67;;
9698;SDS011;10089;47.876;8.346;2023-12-20T11:23:35;3.00;;;1.95;;
9698;SDS011;10089;47.876;8.346;2023-12-20T11:26:01;2.90;;;1.85;;
9698;SDS011;10089;47.876;8.346;2023-12-20T11:28:28;2.22;;;1.90;;
9698;SDS011;10089;47.876;8.346;2023-12-20T11:30:58;2.22;;;2.00;;
9698;SDS011;10089;47.876;8.346;2023-12-20T11:36:01;2.10;;;1.77;;
9698;SDS011;10089;47.876;8.346;2023-12-20T11:38:35;3.10;;;2.45;;
9698;SDS011;10089;47.876;8.346;2023-12-20T11:41:02;3.55;;;2.10;;
9698;SDS011;10089;47.876;8.346;2023-12-20T11:43:31;3.13;;;2.25;;
9698;SDS011;10089;47.876;8.346;2023-12-20T11:46:07;3.05;;;2.33;;
9698;SDS011;10089;47.876;8.346;2023-12-20T11:48:34;2.63;;;2.22;;
9698;SDS011;10089;47.876;8.346;2023-12-20T11:51:02;3.63;;;2.17;;
9698;SDS011;10089;47.876;8.346;2023-12-20T11:53:29;3.92;;;2.58;;
9698;SDS011;10089;47.876;8.346;2023-12-20T11:55:57;3.85;;;2.47;;
9698;SDS011;10089;47.876;8.346;2023-12-20T11:58:22;3.87;;;2.20;;
9698;SDS011;10089;47.876;8.346;2023-12-20T12:00:49;2.33;;;2.00;;
9698;SDS011;10089;47.876;8.346;2023-12-20T12:03:16;3.28;;;2.20;;
9698;SDS011;10089;47.876;8.346;2023-12-20T12:05:42;3.20;;;2.60;;
9698;SDS011;10089;47.876;8.346;2023-12-20T12:08:07;6.65;;;2.97;;
9698;SDS011;10089;47.876;8.346;2023-12-20T12:10:33;3.23;;;2.27;;
9698;SDS011;10089;47.876;8.346;2023-12-20T12:12:59;2.87;;;2.30;;
9698;SDS011;10089;47.876;8.346;2023-12-20T12:15:25;3.30;;;2.17;;
9698;SDS011;10089;47.876;8.346;2023-12-20T12:17:55;2.77;;;2.57;;
9698;SDS011;10089;47.876;8.346;2023-12-20T12:20:21;3.30;;;2.33;;
9698;SDS011;10089;47.876;8.346;2023-12-20T12:22:57;5.47;;;2.13;;
9698;SDS011;10089;47.876;8.346;2023-12-20T12:25:24;4.13;;;2.20;;
9698;SDS011;10089;47.876;8.346;2023-12-20T12:27:52;2.05;;;1.85;;
9698;SDS011;10089;47.876;8.346;2023-12-20T12:30:21;2.60;;;2.17;;
9698;SDS011;10089;47.876;8.346;2023-12-20T12:32:47;4.70;;;1.88;;
9698;SDS011;10089;47.876;8.346;2023-12-20T12:35:13;2.50;;;2.30;;
9698;SDS011;10089;47.876;8.346;2023-12-20T12:37:40;7.88;;;2.53;;
9698;SDS011;10089;47.876;8.346;2023-12-20T12:40:10;5.60;;;2.17;;
9698;SDS011;10089;47.876;8.346;2023-12-20T12:42:37;4.50;;;1.90;;
9698;SDS011;10089;47.876;8.346;2023-12-20T12:45:03;3.10;;;1.90;;
9698;SDS011;10089;47.876;8.346;2023-12-20T12:47:29;5.68;;;2.20;;
9698;SDS011;10089;47.876;8.346;2023-12-20T12:49:55;3.03;;;1.95;;
9698;SDS011;10089;47.876;8.346;2023-12-20T12:52:21;2.50;;;2.00;;
9698;SDS011;10089;47.876;8.346;2023-12-20T12:54:47;3.05;;;2.15;;
9698;SDS011;10089;47.876;8.346;2023-12-20T12:57:14;4.32;;;2.33;;
9698;SDS011;10089;47.876;8.346;2023-12-20T12:59:41;7.63;;;2.30;;
9698;SDS011;10089;47.876;8.346;2023-12-20T13:02:09;3.75;;;2.20;;
9698;SDS011;10089;47.876;8.346;2023-12-20T13:04:34;4.60;;;2.38;;
9698;SDS011;10089;47.876;8.346;2023-12-20T13:07:00;4.30;;;2.20;;
9698;SDS011;10089;47.876;8.346;2023-12-20T13:09:26;2.92;;;2.33;;
9698;SDS011;10089;47.876;8.346;2023-12-20T13:11:52;6.53;;;2.50;;
9698;SDS011;10089;47.876;8.346;2023-12-20T13:14:17;3.37;;;2.37;;
9698;SDS011;10089;47.876;8.346;2023-12-20T13:16:43;3.45;;;2.25;;
9698;SDS011;10089;47.876;8.346;2023-12-20T13:19:10;2.80;;;2.30;;
9698;SDS011;10089;47.876;8.346;2023-12-20T13:21:36;7.23;;;2.67;;
9698;SDS011;10089;47.876;8.346;2023-12-20T13:24:02;6.00;;;3.07;;
9698;SDS011;10089;47.876;8.346;2023-12-20T13:26:28;8.10;;;2.93;;
9698;SDS011;10089;47.876;8.346;2023-12-20T13:28:54;4.03;;;2.63;;
9698;SDS011;10089;47.876;8.346;2023-12-20T13:31:19;7.63;;;2.50;;
9698;SDS011;10089;47.876;8.346;2023-12-20T13:33:45;3.30;;;2.10;;
9698;SDS011;10089;47.876;8.346;2023-12-20T13:36:11;4.30;;;2.57;;
9698;SDS011;10089;47.876;8.346;2023-12-20T13:38:37;6.80;;;2.27;;
9698;SDS011;10089;47.876;8.346;2023-12-20T13:41:03;4.90;;;2.27;;
9698;SDS011;10089;47.876;8.346;2023-12-20T13:43:30;4.10;;;2.42;;
9698;SDS011;10089;47.876;8.346;2023-12-20T13:45:57;4.57;;;2.50;;
9698;SDS011;10089;47.876;8.346;2023-12-20T13:48:24;4.78;;;2.20;;
9698;SDS011;10089;47.876;8.346;2023-12-20T13:50:49;3.90;;;2.50;;
9698;SDS011;10089;47.876;8.346;2023-12-20T13:53:15;4.13;;;2.40;;
9698;SDS011;10089;47.876;8.346;2023-12-20T13:55:41;5.87;;;2.27;;
9698;SDS011;10089;47.876;8.346;2023-12-20T13:58:06;4.87;;;2.20;;
9698;SDS011;10089;47.876;8.346;2023-12-20T14:00:32;4.33;;;2.10;;
9698;SDS011;10089;47.876;8.346;2023-12-20T14:02:58;3.57;;;2.07;;
9698;SDS011;10089;47.876;8.346;2023-12-20T14:05:23;3.67;;;2.23;;
9698;SDS011;10089;47.876;8.346;2023-12-20T14:07:49;7.93;;;3.00;;
9698;SDS011;10089;47.876;8.346;2023-12-20T14:10:15;6.77;;;3.50;;
9698;SDS011;10089;47.876;8.346;2023-12-20T14:12:41;14.60;;;7.03;;
9698;SDS011;10089;47.876;8.346;2023-12-20T14:15:07;7.23;;;2.53;;
9698;SDS011;10089;47.876;8.346;2023-12-20T14:17:38;4.60;;;3.13;;
9698;SDS011;10089;47.876;8.346;2023-12-20T14:20:05;6.43;;;4.03;;
9698;SDS011;10089;47.876;8.346;2023-12-20T14:22:46;8.97;;;4.03;;
9698;SDS011;10089;47.876;8.346;2023-12-20T14:25:12;10.37;;;3.53;;
9698;SDS011;10089;47.876;8.346;2023-12-20T14:27:39;6.93;;;4.03;;
9698;SDS011;10089;47.876;8.346;2023-12-20T14:30:06;8.93;;;2.60;;
9698;SDS011;10089;47.876;8.346;2023-12-20T14:32:34;5.13;;;1.97;;
9698;SDS011;10089;47.876;8.346;2023-12-20T14:35:02;10.00;;;3.50;;
9698;SDS011;10089;47.876;8.346;2023-12-20T14:37:29;6.80;;;2.50;;
9698;SDS011;10089;47.876;8.346;2023-12-20T14:39:54;10.55;;;3.40;;
9698;SDS011;10089;47.876;8.346;2023-12-20T14:42:20;8.15;;;2.72;;
9698;SDS011;10089;47.876;8.346;2023-12-20T14:44:47;7.87;;;3.10;;
9698;SDS011;10089;47.876;8.346;2023-12-20T14:47:13;5.45;;;2.38;;
9698;SDS011;10089;47.876;8.346;2023-12-20T14:49:40;7.97;;;3.50;;
9698;SDS011;10089;47.876;8.346;2023-12-20T14:52:06;5.83;;;1.70;;
9698;SDS011;10089;47.876;8.346;2023-12-20T14:54:31;3.77;;;1.70;;
9698;SDS011;10089;47.876;8.346;2023-12-20T14:56:57;2.77;;;1.53;;
9698;SDS011;10089;47.876;8.346;2023-12-20T14:59:24;6.60;;;2.00;;
9698;SDS011;10089;47.876;8.346;2023-12-20T15:01:49;3.67;;;1.63;;
9698;SDS011;10089;47.876;8.346;2023-12-20T15:04:15;5.07;;;2.57;;
9698;SDS011;10089;47.876;8.346;2023-12-20T15:06:41;3.00;;;2.10;;